Time;durP1;ratioP1;P1;durP2;ratioP2;P2;SDS_P1;SDS_P2;PMS_P1;PMS_P2;Temp;Humidity;BMP_temperature;BMP_pressure;BME280_temperature;BME280_humidity;BME280_pressure;Samples;Min_cycle;Max_cycle;Signal;HPM_P1;HPM_P2
2022/09/18 17:43:27;;;;;;;0.38;0.38;;;;;;;16.49;52.06;101304.41;4925078;27;6373211;-51
2022/09/18 17:45:58;;;;;;;0.80;0.60;;;;;;;16.42;52.45;101307.16;5114151;28;20446;-50
2022/09/18 17:48:25;;;;;;;2.80;0.75;;;;;;;16.28;52.82;101300.91;5114673;28;20039;-52
2022/09/18 17:51:05;;;;;;;1.60;1.35;;;;;;;16.20;53.19;101309.28;5131684;28;20475;-46
2022/09/18 17:53:33;;;;;;;1.58;1.08;;;;;;;16.06;53.15;101308.44;5114183;28;20035;-47
2022/09/18 17:56:01;;;;;;;1.90;1.20;;;;;;;16.05;52.89;101325.75;5113881;28;20029;-47
2022/09/18 17:58:29;;;;;;;1.40;1.00;;;;;;;15.89;53.88;101312.63;5113506;28;20043;-49
2022/09/18 18:00:56;;;;;;;2.83;0.80;;;;;;;15.84;53.98;101316.78;5113670;28;20032;-50
2022/09/18 18:03:24;;;;;;;0.98;0.52;;;;;;;15.82;54.07;101318.88;5113401;28;20031;-49
2022/09/18 18:05:56;;;;;;;1.10;0.60;;;;;;;15.80;54.00;101323.63;5113993;28;20039;-47
2022/09/18 18:08:26;;;;;;;2.53;0.70;;;;;;;15.69;54.41;101316.09;5131708;28;20062;-45
2022/09/18 18:10:52;;;;;;;0.70;0.70;;;;;;;15.52;54.23;101302.13;5113259;28;20390;-47
2022/09/18 18:13:18;;;;;;;1.23;1.13;;;;;;;15.60;54.29;101320.03;5130653;28;20144;-47
2022/09/18 18:15:44;;;;;;;1.13;0.80;;;;;;;15.45;54.80;101307.53;5131399;28;20035;-47
2022/09/18 18:18:10;;;;;;;1.17;0.70;;;;;;;15.40;54.61;101326.25;5131185;28;20031;-50
2022/09/18 18:20:37;;;;;;;1.10;0.60;;;;;;;15.35;54.80;101339.56;5132827;28;20037;-50
2022/09/18 18:23:03;;;;;;;0.60;0.60;;;;;;;15.20;55.03;101320.78;5114867;28;20118;-48
2022/09/18 18:25:28;;;;;;;0.90;0.57;;;;;;;15.19;55.49;101340.78;5134232;28;20067;-50
2022/09/18 18:27:54;;;;;;;1.52;0.60;;;;;;;15.11;55.82;101343.66;5131716;28;20039;-51
2022/09/18 18:30:22;;;;;;;0.98;0.73;;;;;;;15.00;55.96;101344.22;5130604;28;20037;-45
2022/09/18 18:32:50;;;;;;;2.00;1.27;;;;;;;14.93;56.28;101357.72;5099152;28;20073;-49
2022/09/18 18:35:18;;;;;;;3.53;2.15;;;;;;;14.82;56.32;101369.94;5110359;28;20074;-48
2022/09/18 18:37:44;;;;;;;2.58;2.33;;;;;;;14.72;56.89;101350.53;5092492;28;20032;-48
2022/09/18 18:40:10;;;;;;;3.95;2.40;;;;;;;14.74;56.47;101363.84;5075431;28;20367;-46
2022/09/18 18:42:36;;;;;;;4.90;3.58;;;;;;;14.76;56.21;101369.91;5107013;28;20044;-49
2022/09/18 18:45:02;;;;;;;3.83;2.88;;;;;;;14.70;56.11;101369.66;5096914;28;20341;-50
2022/09/18 18:47:28;;;;;;;5.45;3.70;;;;;;;14.72;56.08;101388.38;5097254;28;20066;-50
2022/09/18 18:49:56;;;;;;;7.18;4.15;;;;;;;14.66;56.54;101384.59;5078657;28;20067;-48
2022/09/18 18:52:23;;;;;;;8.15;5.30;;;;;;;14.62;56.81;101387.91;5096747;28;20114;-49
2022/09/18 18:54:49;;;;;;;6.60;4.45;;;;;;;14.55;56.97;101387.81;5096727;28;20081;-48
2022/09/18 18:57:15;;;;;;;3.92;3.10;;;;;;;14.47;57.28;101394.22;5078898;28;20114;-47
2022/09/18 18:59:42;;;;;;;4.90;3.13;;;;;;;14.33;57.54;101385.16;5097359;28;20053;-52
2022/09/18 19:02:09;;;;;;;3.35;2.47;;;;;;;14.50;57.87;101410.06;5096777;28;20028;-47
2022/09/18 19:04:37;;;;;;;5.00;2.50;;;;;;;14.61;58.05;101413.28;5061902;28;20471;-49
2022/09/18 19:07:04;;;;;;;3.38;2.08;;;;;;;14.61;58.19;101419.50;5096544;28;20036;-47
2022/09/18 19:09:31;;;;;;;6.30;2.60;;;;;;;14.63;58.17;101422.00;5096729;28;20502;-48
2022/09/18 19:11:57;;;;;;;3.15;2.60;;;;;;;14.60;58.01;101417.84;5097742;28;20123;-47
2022/09/18 19:14:24;;;;;;;5.50;2.80;;;;;;;14.69;58.47;101423.91;5098057;28;20028;-49
2022/09/18 19:16:52;;;;;;;4.03;2.53;;;;;;;14.71;58.46;101425.41;5098080;28;20032;-50
2022/09/18 19:19:20;;;;;;;5.88;3.50;;;;;;;14.74;58.61;101424.16;5080874;28;20464;-48
2022/09/18 19:21:47;;;;;;;7.35;4.03;;;;;;;14.78;58.99;101438.97;5083682;28;20016;-49
2022/09/18 19:24:15;;;;;;;9.88;4.85;;;;;;;14.79;58.82;101437.94;5102619;28;20028;-48
2022/09/18 19:26:42;;;;;;;6.78;4.22;;;;;;;14.78;59.22;101438.97;5066852;28;20487;-47
2022/09/18 19:29:11;;;;;;;9.98;4.70;;;;;;;14.80;59.01;101436.06;5083773;28;20028;-49
2022/09/18 19:31:38;;;;;;;5.72;3.50;;;;;;;14.81;58.83;101441.28;5097909;28;20028;-45
2022/09/18 19:34:05;;;;;;;7.25;4.15;;;;;;;14.80;59.00;101445.03;5080182;28;20379;-46
2022/09/18 19:36:32;;;;;;;8.85;3.70;;;;;;;14.81;58.47;101446.69;5098068;28;20494;-46
2022/09/18 19:39:00;;;;;;;6.57;3.95;;;;;;;14.84;58.21;101457.13;5079183;28;20027;-45
2022/09/18 19:42:03;;;;;;;7.25;3.45;;;;;;;14.85;58.67;101456.06;5075609;28;20128;-47
2022/09/18 19:44:44;;;;;;;7.32;3.13;;;;;;;14.83;58.26;101450.03;5076608;28;20459;-47
2022/09/18 19:47:22;;;;;;;4.20;2.60;;;;;;;14.70;58.52;101431.00;5076511;28;20119;-47
2022/09/18 19:49:50;;;;;;;4.63;3.03;;;;;;;14.73;57.72;101448.69;5077385;28;20032;-46
2022/09/18 19:52:19;;;;;;;6.82;3.13;;;;;;;14.58;57.99;101435.28;5076924;28;20029;-47
2022/09/18 19:54:46;;;;;;;5.68;2.90;;;;;;;14.62;57.96;101448.22;5058863;28;20029;-48
2022/09/18 19:57:13;;;;;;;4.30;2.65;;;;;;;14.68;57.76;101455.53;5078173;28;20029;-46
2022/09/18 19:59:39;;;;;;;4.95;2.60;;;;;;;14.67;57.77;101456.59;5077705;28;20109;-46
2022/09/18 20:02:05;;;;;;;4.63;2.42;;;;;;;14.68;57.00;101460.94;5078022;28;20028;-46
2022/09/18 20:04:31;;;;;;;3.50;1.85;;;;;;;14.56;56.68;101457.09;5077336;28;20028;-46
2022/09/18 20:06:57;;;;;;;2.88;1.55;;;;;;;14.61;56.62;101451.13;5059491;28;20035;-48
2022/09/18 20:09:27;;;;;;;2.85;1.70;;;;;;;14.63;56.30;101449.88;5077789;28;20153;-49
2022/09/18 20:11:53;;;;;;;3.20;1.88;;;;;;;14.61;56.55;101459.22;5078448;28;20033;-47
2022/09/18 20:14:19;;;;;;;2.97;2.15;;;;;;;14.63;57.01;101462.56;5077873;28;20024;-45
2022/09/18 20:16:45;;;;;;;4.20;2.38;;;;;;;14.60;56.58;101474.63;5077096;28;20404;-46
2022/09/18 20:19:10;;;;;;;5.32;2.00;;;;;;;14.50;56.32;101458.72;5078011;28;20133;-45
2022/09/18 20:21:36;;;;;;;3.38;1.98;;;;;;;14.49;55.83;101470.53;5076572;28;20028;-46
2022/09/18 20:24:02;;;;;;;5.03;1.63;;;;;;;14.31;55.45;101487.22;5077340;28;20024;-45
2022/09/18 20:26:28;;;;;;;4.00;1.88;;;;;;;14.09;56.55;101477.44;5077024;28;20032;-46
2022/09/18 20:28:54;;;;;;;3.40;1.63;;;;;;;14.10;56.96;101501.56;5078551;28;20025;-45
2022/09/18 20:31:22;;;;;;;10.07;1.48;;;;;;;14.06;56.97;101496.72;5078773;28;20028;-45
2022/09/18 20:33:53;;;;;;;2.17;0.90;;;;;;;14.16;57.02;101496.41;5077543;28;20439;-45
2022/09/18 20:36:19;;;;;;;3.33;1.40;;;;;;;14.18;56.93;101500.59;5076227;28;20554;-47
2022/09/18 20:38:46;;;;;;;4.20;0.90;;;;;;;14.03;57.04;101483.59;5075676;28;20029;-46
2022/09/18 20:41:15;;;;;;;4.90;0.88;;;;;;;13.99;57.98;101499.34;5076534;28;20025;-47
2022/09/18 20:43:43;;;;;;;2.13;0.90;;;;;;;13.99;57.75;101499.34;5096241;28;20105;-47
2022/09/18 20:46:12;;;;;;;2.33;0.80;;;;;;;13.95;57.74;101506.16;5095731;28;20031;-47
2022/09/18 20:48:40;;;;;;;2.50;0.88;;;;;;;13.83;59.03;101502.28;5096629;28;20031;-46
2022/09/18 20:51:08;;;;;;;4.95;1.30;;;;;;;13.81;58.99;101509.72;5079092;28;20028;-47
2022/09/18 20:53:37;;;;;;;3.95;1.30;;;;;;;13.77;59.09;101511.97;5097788;28;20032;-46
2022/09/18 20:56:04;;;;;;;8.30;1.20;;;;;;;13.72;59.49;101500.91;5097987;28;20379;-46
2022/09/18 20:58:32;;;;;;;4.57;1.02;;;;;;;13.60;59.87;101497.84;5097478;28;20028;-46
2022/09/18 21:01:09;;;;;;;2.47;0.70;;;;;;;13.64;60.14;101518.03;5097473;28;20028;-46
2022/09/18 21:03:37;;;;;;;2.90;1.13;;;;;;;13.67;59.89;101517.66;5097440;28;20047;-46
2022/09/18 21:06:09;;;;;;;2.63;0.80;;;;;;;13.70;60.11;101519.16;5096581;28;20036;-46
2022/09/18 21:08:41;;;;;;;3.75;0.60;;;;;;;13.65;59.97;101513.47;5078243;28;20487;-47
2022/09/18 21:11:10;;;;;;;3.22;0.80;;;;;;;13.60;60.32;101521.31;5096002;28;20051;-47
2022/09/18 21:13:40;;;;;;;2.97;0.60;;;;;;;13.62;60.06;101533.59;5078160;28;20423;-50
2022/09/18 21:16:06;;;;;;;3.30;0.77;;;;;;;13.64;60.28;101528.00;5078909;28;20030;-48
2022/09/18 21:18:35;;;;;;;3.22;1.00;;;;;;;13.64;60.04;101520.75;5096426;28;20031;-46
2022/09/18 21:21:02;;;;;;;9.48;1.10;;;;;;;13.62;60.46;101530.06;5079451;28;20536;-47
2022/09/18 21:26:14;;;;;;;2.40;0.80;;;;;;;13.65;60.13;101552.13;5076673;28;20031;-51
2022/09/18 21:28:40;;;;;;;7.13;1.08;;;;;;;13.59;60.83;101541.22;5095260;28;20348;-49
2022/09/18 21:31:10;;;;;;;2.28;0.63;;;;;;;13.59;60.88;101547.44;5094681;28;20054;-49
2022/09/18 21:33:38;;;;;;;2.22;0.80;;;;;;;13.58;60.21;101537.69;5094747;28;20513;-46
2022/09/18 21:36:04;;;;;;;3.47;0.55;;;;;;;13.61;60.42;101544.56;5094860;28;20032;-47
2022/09/18 21:38:31;;;;;;;2.47;0.90;;;;;;;13.49;60.15;101530.72;5076940;28;20024;-47
2022/09/18 21:41:04;;;;;;;2.33;0.80;;;;;;;13.49;60.50;101542.34;5094445;28;20154;-47
2022/09/18 21:43:31;;;;;;;3.97;0.90;;;;;;;13.43;60.68;101544.94;5094495;28;20032;-48
2022/09/18 21:46:06;;;;;;;5.90;0.93;;;;;;;13.38;61.09;101537.41;5093877;28;20085;-49
2022/09/18 21:48:33;;;;;;;1.58;0.85;;;;;;;13.36;60.98;101539.47;5076809;28;20020;-47
2022/09/18 21:51:08;;;;;;;2.00;0.55;;;;;;;13.33;61.68;101543.38;5094150;28;20055;-45
2022/09/18 21:53:38;;;;;;;1.85;0.50;;;;;;;13.34;61.07;101544.22;5075521;28;20119;-46
2022/09/18 21:56:08;;;;;;;6.70;0.88;;;;;;;13.34;61.47;101542.34;5076988;28;20066;-46
2022/09/18 21:58:35;;;;;;;1.88;0.80;;;;;;;13.34;61.41;101547.72;5094318;28;20032;-49
2022/09/18 22:01:14;;;;;;;1.38;0.60;;;;;;;13.36;61.37;101545.69;5059542;28;20031;-46
2022/09/18 22:03:51;;;;;;;0.93;0.50;;;;;;;13.40;61.34;101556.13;5094672;28;20044;-47
2022/09/18 22:06:19;;;;;;;2.95;0.98;;;;;;;13.41;61.49;101549.69;5077997;28;20020;-46
2022/09/18 22:08:48;;;;;;;1.48;0.50;;;;;;;13.44;61.07;101554.72;5075747;28;20031;-47
2022/09/18 22:11:17;;;;;;;2.85;0.40;;;;;;;13.46;60.98;101549.97;5076073;28;20115;-49
2022/09/18 22:13:44;;;;;;;3.97;0.60;;;;;;;13.49;61.02;101552.31;5094173;28;20087;-46
2022/09/18 22:16:10;;;;;;;5.05;0.75;;;;;;;13.50;61.49;101556.66;5093929;28;20027;-47
2022/09/18 22:18:37;;;;;;;2.80;0.95;;;;;;;13.39;61.48;101552.59;5061045;28;20024;-47
2022/09/18 22:21:04;;;;;;;4.10;0.80;;;;;;;13.41;61.43;101563.16;5079550;28;20078;-48
2022/09/18 22:23:31;;;;;;;3.70;0.50;;;;;;;13.39;61.71;101557.13;5079497;28;20020;-47
2022/09/18 22:26:03;;;;;;;3.72;0.60;;;;;;;13.33;61.17;101550.59;5098007;28;20031;-47
2022/09/18 22:28:29;;;;;;;3.35;0.80;;;;;;;13.21;60.98;101542.13;5080266;28;20028;-52
2022/09/18 22:30:55;;;;;;;1.70;0.70;;;;;;;13.41;61.27;101569.44;5098085;28;20384;-49
2022/09/18 22:33:21;;;;;;;3.90;0.82;;;;;;;13.42;61.41;101570.25;5099705;28;20039;-51
2022/09/18 22:35:47;;;;;;;1.80;0.70;;;;;;;13.40;61.39;101573.13;5098450;28;20035;-50
2022/09/18 22:38:13;;;;;;;2.13;0.70;;;;;;;13.42;61.29;101564.84;5098775;28;20020;-47
2022/09/18 22:40:39;;;;;;;4.82;0.82;;;;;;;13.42;61.34;101576.47;5098808;28;20032;-48
2022/09/18 22:43:05;;;;;;;2.63;0.52;;;;;;;13.44;61.49;101576.31;5097681;28;20105;-47
2022/09/18 22:45:30;;;;;;;2.75;0.88;;;;;;;13.38;61.14;101558.16;5098097;28;20074;-48
2022/09/18 22:47:56;;;;;;;5.60;0.68;;;;;;;13.30;61.55;101561.75;5097753;28;20102;-46
2022/09/18 22:50:22;;;;;;;3.22;0.40;;;;;;;13.39;61.47;101567.91;5097339;28;20028;-46
2022/09/18 22:52:48;;;;;;;2.55;0.70;;;;;;;13.31;61.42;101563.44;5078740;28;20529;-46
2022/09/18 22:55:13;;;;;;;1.35;0.40;;;;;;;13.29;61.77;101565.47;5062326;28;20024;-47
2022/09/18 22:57:39;;;;;;;2.97;0.68;;;;;;;13.33;61.31;101570.34;5097154;28;20024;-47
2022/09/18 23:00:06;;;;;;;1.30;0.60;;;;;;;13.29;61.32;101571.69;5079260;28;20066;-46
2022/09/18 23:02:32;;;;;;;2.42;0.73;;;;;;;13.28;61.75;101577.25;5096977;28;20035;-47
2022/09/18 23:04:57;;;;;;;1.85;0.57;;;;;;;13.24;61.65;101570.56;5096799;28;20035;-48
2022/09/18 23:07:24;;;;;;;1.50;0.73;;;;;;;13.22;61.98;101569.91;5078573;28;20042;-47
2022/09/18 23:09:50;;;;;;;0.90;0.50;;;;;;;13.20;61.58;101564.69;5096475;28;20044;-51
2022/09/18 23:12:15;;;;;;;1.25;0.43;;;;;;;13.13;61.74;101561.06;5078216;28;20030;-48
2022/09/18 23:14:41;;;;;;;4.15;0.75;;;;;;;13.19;61.76;101573.84;5078180;28;20498;-48
2022/09/18 23:17:07;;;;;;;1.70;0.73;;;;;;;13.20;62.22;101572.78;5096361;28;20645;-49
2022/09/18 23:19:33;;;;;;;3.20;0.82;;;;;;;13.12;62.37;101557.53;5096320;28;20036;-48
2022/09/18 23:21:59;;;;;;;2.35;0.60;;;;;;;13.18;62.56;101575.66;5096192;28;20089;-47
2022/09/18 23:24:26;;;;;;;1.67;0.60;;;;;;;13.19;62.39;101571.13;5096064;28;20468;-48
2022/09/18 23:26:55;;;;;;;2.45;0.55;;;;;;;13.21;62.06;101573.66;5096020;28;20031;-48
2022/09/18 23:29:23;;;;;;;2.92;0.60;;;;;;;13.19;62.23;101568.44;5096371;28;20024;-48
2022/09/18 23:31:51;;;;;;;2.67;0.52;;;;;;;13.11;62.25;101563.09;5095703;28;20039;-47
2022/09/18 23:34:21;;;;;;;2.38;0.63;;;;;;;13.21;62.48;101582.56;5096300;28;20367;-48
2022/09/18 23:36:50;;;;;;;1.58;0.60;;;;;;;13.21;62.41;101574.47;5095892;28;20024;-47
2022/09/18 23:39:23;;;;;;;1.80;0.50;;;;;;;13.16;62.28;101568.78;5078230;28;20093;-47
2022/09/18 23:41:50;;;;;;;1.77;0.57;;;;;;;13.20;62.30;101580.88;5095674;28;20070;-47
2022/09/18 23:44:18;;;;;;;2.35;0.45;;;;;;;13.23;62.19;101585.09;5095864;28;20020;-46
2022/09/18 23:46:44;;;;;;;2.03;0.50;;;;;;;13.21;62.24;101581.75;5095717;28;20024;-46
2022/09/18 23:49:11;;;;;;;3.13;0.50;;;;;;;13.17;62.53;101581.28;5095986;28;20125;-46
2022/09/18 23:51:41;;;;;;;3.15;0.60;;;;;;;13.04;62.59;101556.75;5095669;28;20028;-47
2022/09/18 23:54:13;;;;;;;4.20;0.70;;;;;;;13.17;62.03;101590.19;5095625;28;20031;-46
2022/09/18 23:56:39;;;;;;;2.97;0.57;;;;;;;13.14;62.30;101577.06;5095787;28;20036;-48
2022/09/18 23:59:06;;;;;;;4.82;0.47;;;;;;;13.17;62.44;101583.97;5095740;28;20028;-48
